Time;durP1;ratioP1;P1;durP2;ratioP2;P2;SDS_P1;SDS_P2;PMS_P1;PMS_P2;Temp;Humidity;BMP_temperature;BMP_pressure;BME280_temperature;BME280_humidity;BME280_pressure;Samples;Min_cycle;Max_cycle;Signal;HPM_P1;HPM_P2
2023/05/19 00:04:11;;;;;;;11.63;8.27;;;;;;;11.74;86.38;99986.91;10457684;28;20045;-67
2023/05/19 00:09:12;;;;;;;13.38;9.10;;;;;;;11.74;85.99;99980.75;10460158;28;20041;-67
2023/05/19 00:14:13;;;;;;;15.55;8.35;;;;;;;11.14;85.98;99890.31;10460543;28;20052;-67
2023/05/19 00:19:15;;;;;;;14.35;8.00;;;;;;;11.75;84.80;99979.75;10459976;28;20045;-67
2023/05/19 00:24:16;;;;;;;15.35;8.35;;;;;;;11.55;84.22;99945.72;10460295;28;20171;-67
2023/05/19 00:29:17;;;;;;;25.42;8.68;;;;;;;11.74;84.03;99986.06;10459943;28;20187;-67
2023/05/19 00:34:18;;;;;;;13.98;7.80;;;;;;;11.71;83.38;99984.59;10459566;28;20048;-67
2023/05/19 00:39:19;;;;;;;18.25;9.50;;;;;;;11.65;83.60;99977.38;10458420;28;20040;-67
2023/05/19 00:44:19;;;;;;;10.75;8.00;;;;;;;11.57;83.58;99977.44;10459001;28;20048;-67
2023/05/19 00:49:20;;;;;;;16.85;8.68;;;;;;;11.25;83.94;99941.38;10458628;28;20091;-67
2023/05/19 00:54:21;;;;;;;15.02;8.10;;;;;;;11.34;84.36;99975.72;10459389;28;20120;-67
2023/05/19 00:59:22;;;;;;;14.70;7.80;;;;;;;11.09;84.92;99945.84;10458270;28;20056;-67
2023/05/19 01:04:24;;;;;;;17.35;8.80;;;;;;;11.28;84.88;99976.44;10446596;28;20095;-67
2023/05/19 01:09:25;;;;;;;33.25;10.20;;;;;;;11.35;85.13;99981.84;10416879;28;20048;-66
2023/05/19 01:14:27;;;;;;;20.77;8.13;;;;;;;11.31;85.63;99991.22;10416081;28;20033;-67
2023/05/19 01:19:46;;;;;;;16.05;8.20;;;;;;;11.27;87.01;99996.03;10416610;28;20048;-67
2023/05/19 01:25:12;;;;;;;12.13;8.27;;;;;;;11.32;88.97;100004.31;10415103;28;20405;-67
2023/05/19 01:30:26;;;;;;;15.80;8.40;;;;;;;11.28;88.63;100002.19;10415491;28;20047;-67
2023/05/19 01:35:28;;;;;;;16.90;8.93;;;;;;;11.20;86.75;100011.06;10416006;28;20041;-67
2023/05/19 01:40:29;;;;;;;20.20;9.77;;;;;;;11.09;86.58;99992.88;10426009;28;20053;-67
2023/05/19 01:45:33;;;;;;;13.18;8.13;;;;;;;11.14;87.07;100017.09;10415314;28;20099;-67
2023/05/19 01:50:33;;;;;;;19.35;8.93;;;;;;;11.12;86.58;100003.97;10413886;28;20041;-67
2023/05/19 01:55:44;;;;;;;36.00;9.80;;;;;;;11.23;88.80;100016.03;10414355;28;20045;-67
2023/05/19 02:00:52;;;;;;;31.58;9.75;;;;;;;11.34;89.30;100025.41;10414918;28;20049;-67
2023/05/19 02:06:02;;;;;;;21.52;8.75;;;;;;;11.43;87.33;100024.31;10413816;28;20456;-67
2023/05/19 02:11:08;;;;;;;42.13;9.57;;;;;;;11.02;87.79;99944.13;10413189;28;20056;-67
2023/05/19 02:16:12;;;;;;;17.17;8.23;;;;;;;11.79;86.88;100027.09;10414561;28;20406;-67
2023/05/19 02:21:13;;;;;;;52.08;9.50;;;;;;;11.88;86.16;99985.28;10413519;28;20083;-67
2023/05/19 02:26:14;;;;;;;121.00;12.35;;;;;;;12.53;85.32;100019.03;10412475;28;20499;-67
2023/05/19 02:31:15;;;;;;;22.42;8.75;;;;;;;13.30;84.42;100036.16;10435267;28;20045;-68
2023/05/19 02:36:15;;;;;;;18.17;7.75;;;;;;;13.89;81.77;99977.00;10447527;28;20515;-67
2023/05/19 02:41:16;;;;;;;31.38;7.50;;;;;;;15.11;77.92;100017.22;10412816;28;20037;-67
2023/05/19 02:46:17;;;;;;;35.45;7.47;;;;;;;16.19;73.38;100025.69;10410934;28;20041;-68
2023/05/19 02:51:18;;;;;;;18.30;7.13;;;;;;;16.99;69.71;99982.31;10411243;28;20459;-68
2023/05/19 02:56:20;;;;;;;32.22;7.85;;;;;;;18.51;66.80;100041.69;10440608;28;20048;-67
2023/05/19 03:01:21;;;;;;;12.15;6.22;;;;;;;19.32;62.37;100044.88;10414706;28;20049;-67
2023/05/19 03:06:23;;;;;;;11.38;5.90;;;;;;;20.07;59.68;100046.84;10413065;28;20049;-67
2023/05/19 03:11:25;;;;;;;32.83;20.50;;;;;;;20.83;56.78;100055.66;10412330;28;20037;-67
2023/05/19 03:16:26;;;;;;;299.08;150.82;;;;;;;21.69;53.61;100052.78;10413018;28;20068;-65
2023/05/19 03:21:27;;;;;;;68.90;34.38;;;;;;;22.66;50.26;100056.69;10411945;28;20037;-65
2023/05/19 03:26:28;;;;;;;17.10;10.48;;;;;;;23.18;48.81;100053.44;10412570;28;20053;-65
2023/05/19 03:31:29;;;;;;;16.40;8.10;;;;;;;24.14;47.32;100051.63;10412632;28;20504;-65
2023/05/19 03:36:38;;;;;;;29.48;14.35;;;;;;;24.72;46.08;100054.28;10414170;28;20049;-65
2023/05/19 03:41:39;;;;;;;20.95;10.65;;;;;;;24.93;45.40;100049.69;10418707;28;20393;-65
2023/05/19 03:46:40;;;;;;;10.35;6.10;;;;;;;25.09;44.71;100050.53;10420021;28;20042;-65
2023/05/19 03:51:41;;;;;;;14.32;7.38;;;;;;;25.30;44.54;100032.34;10419075;28;20044;-65
2023/05/19 03:56:42;;;;;;;9.75;6.13;;;;;;;25.60;41.86;99942.53;10425832;28;20527;-65
2023/05/19 04:01:43;;;;;;;14.23;6.20;;;;;;;26.80;41.19;100071.34;10417812;28;20048;-65
2023/05/19 04:06:44;;;;;;;15.02;6.18;;;;;;;27.00;39.73;100064.91;10418710;28;20056;-66
2023/05/19 04:11:45;;;;;;;11.65;5.75;;;;;;;26.22;39.80;100070.25;10416954;28;20524;-65
2023/05/19 04:16:46;;;;;;;12.45;6.03;;;;;;;25.80;41.50;100080.41;10417985;28;20094;-65
2023/05/19 04:21:46;;;;;;;11.23;6.22;;;;;;;25.43;41.77;100078.81;10417922;28;20037;-66
2023/05/19 04:26:47;;;;;;;12.70;5.95;;;;;;;26.27;40.30;100089.28;10418077;28;20061;-65
2023/05/19 04:31:48;;;;;;;7.30;5.07;;;;;;;26.76;39.27;100083.88;10417763;28;20049;-65
2023/05/19 04:36:49;;;;;;;9.13;5.80;;;;;;;26.86;38.46;100088.44;10417712;28;20037;-65
2023/05/19 04:41:50;;;;;;;12.77;5.18;;;;;;;26.79;38.29;100091.50;10417396;28;20122;-66
2023/05/19 04:46:53;;;;;;;17.38;5.65;;;;;;;26.64;38.25;100043.34;10418422;28;20049;-65
2023/05/19 04:51:55;;;;;;;16.35;5.85;;;;;;;26.72;38.68;100093.72;10416728;28;20120;-64
2023/05/19 04:56:56;;;;;;;20.40;5.60;;;;;;;26.38;39.46;100112.63;10416519;28;20045;-66
2023/05/19 05:01:57;;;;;;;11.32;5.47;;;;;;;25.92;40.19;100112.78;10416612;28;20059;-65
2023/05/19 05:06:57;;;;;;;8.93;4.97;;;;;;;25.85;39.97;100110.38;10413546;28;20041;-65
2023/05/19 05:11:58;;;;;;;13.20;5.25;;;;;;;25.36;41.32;100116.34;10429485;28;20475;-66
2023/05/19 05:17:00;;;;;;;10.55;4.70;;;;;;;25.16;40.35;100103.56;10416505;28;20128;-66
2023/05/19 05:22:01;;;;;;;7.82;4.55;;;;;;;24.99;39.82;100098.34;10416197;28;20091;-66
2023/05/19 05:27:02;;;;;;;13.23;4.78;;;;;;;24.54;39.59;100033.88;10422745;28;20048;-67
2023/05/19 05:32:03;;;;;;;11.95;4.40;;;;;;;25.03;39.65;100118.44;10444623;28;20504;-66
2023/05/19 05:37:04;;;;;;;11.82;5.07;;;;;;;25.06;38.91;100087.19;10416171;28;20046;-67
2023/05/19 05:42:07;;;;;;;12.85;4.55;;;;;;;25.08;38.84;100108.69;10416055;28;20049;-66
2023/05/19 05:47:10;;;;;;;8.95;4.80;;;;;;;25.11;39.04;100089.94;10415990;28;20085;-66
2023/05/19 05:52:11;;;;;;;10.75;4.50;;;;;;;25.27;38.28;100083.44;10415660;28;20069;-67
2023/05/19 05:57:12;;;;;;;12.57;4.55;;;;;;;25.88;38.39;100095.41;10414887;28;20045;-67
2023/05/19 06:02:13;;;;;;;10.82;4.95;;;;;;;25.20;37.88;100028.53;10413937;28;20042;-67
2023/05/19 06:07:14;;;;;;;15.65;4.80;;;;;;;25.44;37.97;100072.28;10434651;28;20045;-65
2023/05/19 06:12:15;;;;;;;7.47;4.18;;;;;;;25.90;37.14;100112.25;10413839;28;20068;-65
2023/05/19 06:17:15;;;;;;;14.93;4.88;;;;;;;25.69;37.29;100101.34;10414734;28;20115;-66
2023/05/19 06:22:16;;;;;;;11.32;4.55;;;;;;;25.79;38.11;100111.44;10414053;28;20049;-66
2023/05/19 06:27:17;;;;;;;8.07;4.72;;;;;;;25.94;37.80;100111.44;10414003;28;20154;-66
2023/05/19 06:32:18;;;;;;;47.22;5.68;;;;;;;25.33;38.54;99982.84;10413683;28;20041;-66
2023/05/19 06:37:22;;;;;;;7.10;4.70;;;;;;;26.05;37.52;100051.50;10413201;28;20107;-66
2023/05/19 06:42:24;;;;;;;15.02;5.03;;;;;;;26.23;36.87;100094.44;10413575;28;20045;-67
2023/05/19 06:47:24;;;;;;;9.05;4.82;;;;;;;26.22;36.89;100092.81;10413876;28;20096;-67
2023/05/19 06:52:25;;;;;;;11.63;4.45;;;;;;;26.66;36.36;100111.19;10413219;28;20452;-67
2023/05/19 06:57:26;;;;;;;11.20;4.57;;;;;;;26.55;36.55;100094.06;10413235;28;20048;-68
2023/05/19 07:02:27;;;;;;;13.25;4.72;;;;;;;26.13;35.73;100018.28;10412489;28;20066;-66
2023/05/19 07:07:27;;;;;;;13.70;5.03;;;;;;;26.40;36.58;100100.38;10412860;28;20046;-66
2023/05/19 07:12:28;;;;;;;12.07;4.95;;;;;;;25.92;36.18;100002.03;10415747;28;20063;-67
2023/05/19 07:17:29;;;;;;;14.13;5.35;;;;;;;26.80;35.46;100112.22;10431443;28;20095;-67
2023/05/19 07:22:30;;;;;;;11.63;4.93;;;;;;;27.01;35.25;100109.34;10432514;28;20547;-66
2023/05/19 07:27:30;;;;;;;9.32;4.50;;;;;;;27.25;33.82;100112.19;10420515;28;20054;-68
2023/05/19 07:32:31;;;;;;;14.68;4.93;;;;;;;27.29;34.32;100097.72;10422378;28;20049;-66
2023/05/19 07:37:32;;;;;;;14.68;4.95;;;;;;;26.99;34.42;100046.94;10443655;28;20049;-66
2023/05/19 07:42:33;;;;;;;8.38;4.50;;;;;;;27.56;33.33;100112.78;10419894;28;20072;-67
2023/05/19 07:47:34;;;;;;;10.50;4.90;;;;;;;28.07;32.56;100106.00;10420527;28;20087;-66
2023/05/19 07:52:35;;;;;;;13.02;4.80;;;;;;;28.39;31.94;100100.72;10419668;28;20124;-66
2023/05/19 07:57:36;;;;;;;11.55;4.45;;;;;;;28.36;31.10;100097.72;10419060;28;20052;-67
2023/05/19 08:02:37;;;;;;;15.23;5.03;;;;;;;28.06;31.73;100026.03;10419900;28;20045;-65
2023/05/19 08:07:37;;;;;;;9.80;5.18;;;;;;;27.62;32.17;100106.16;10419327;28;20559;-66
2023/05/19 08:12:38;;;;;;;8.90;4.55;;;;;;;27.62;31.94;100013.38;10418386;28;20065;-67
2023/05/19 08:17:39;;;;;;;12.90;5.20;;;;;;;27.92;31.48;100036.00;10419405;28;20041;-67
2023/05/19 08:22:40;;;;;;;8.32;5.05;;;;;;;28.75;31.11;100103.00;10417770;28;20041;-67
2023/05/19 08:27:41;;;;;;;8.73;5.05;;;;;;;28.80;30.85;100089.25;10418775;28;20485;-67
2023/05/19 08:32:42;;;;;;;11.95;5.40;;;;;;;28.19;31.24;99970.69;10418267;28;20060;-67
2023/05/19 08:37:42;;;;;;;7.78;4.85;;;;;;;28.45;31.20;100005.88;10417515;28;20528;-67
2023/05/19 08:42:46;;;;;;;7.07;4.95;;;;;;;28.38;31.30;100092.78;10418278;28;20037;-65
2023/05/19 08:47:50;;;;;;;18.25;5.22;;;;;;;28.01;31.79;100079.88;10417478;28;20037;-67
2023/05/19 08:52:56;;;;;;;13.75;5.30;;;;;;;28.25;32.34;100079.88;10416909;28;20068;-67
2023/05/19 08:57:57;;;;;;;7.53;4.50;;;;;;;28.59;31.05;100055.91;10417664;28;20049;-67
2023/05/19 09:02:59;;;;;;;31.38;5.55;;;;;;;28.09;31.90;100066.41;10417032;28;20044;-67
2023/05/19 09:08:01;;;;;;;10.10;5.37;;;;;;;28.60;31.11;100054.84;10417784;28;20038;-67
2023/05/19 09:13:04;;;;;;;7.72;4.70;;;;;;;29.04;30.77;100078.25;10426154;28;20037;-67
2023/05/19 09:18:13;;;;;;;15.85;5.22;;;;;;;28.09;30.67;100071.03;10414851;28;20049;-69
2023/05/19 09:23:15;;;;;;;12.00;4.95;;;;;;;27.45;32.06;100082.03;10412700;28;20500;-66
2023/05/19 09:28:46;;;;;;;11.55;4.78;;;;;;;28.09;30.83;100071.03;10427229;28;20049;-67
2023/05/19 09:33:52;;;;;;;9.38;4.38;;;;;;;28.08;31.08;100072.13;10414391;28;20053;-67
2023/05/19 09:38:52;;;;;;;12.30;4.80;;;;;;;27.59;31.51;100065.81;10415147;28;20053;-66
2023/05/19 09:43:55;;;;;;;9.10;4.70;;;;;;;27.35;32.21;100075.88;10415454;28;20052;-69
2023/05/19 09:48:59;;;;;;;9.53;4.87;;;;;;;26.64;32.47;99998.94;10422303;28;20544;-66
2023/05/19 09:54:00;;;;;;;16.42;5.28;;;;;;;27.20;32.63;100065.91;10436268;28;20052;-67
2023/05/19 09:59:04;;;;;;;16.25;5.00;;;;;;;26.92;32.72;100053.78;10410216;28;20079;-66
2023/05/19 10:04:05;;;;;;;16.48;5.50;;;;;;;27.49;32.62;100069.47;10415105;28;20099;-64
2023/05/19 10:09:06;;;;;;;14.38;4.68;;;;;;;28.43;31.26;100062.72;10414692;28;20488;-68
2023/05/19 10:14:07;;;;;;;17.83;5.70;;;;;;;28.99;30.59;100059.16;10415176;28;20037;-70
2023/05/19 10:19:08;;;;;;;25.55;5.20;;;;;;;28.49;31.22;100077.94;10413464;28;20079;-69
2023/05/19 10:24:09;;;;;;;10.38;4.50;;;;;;;27.95;31.76;100073.66;10413366;28;20050;-68
2023/05/19 10:29:14;;;;;;;52.70;8.90;;;;;;;27.40;32.90;100078.53;10414288;28;20057;-69
2023/05/19 10:34:17;;;;;;;30.88;9.38;;;;;;;27.11;32.32;100082.00;10414734;28;20049;-70
2023/05/19 10:39:27;;;;;;;14.90;6.53;;;;;;;26.58;33.17;99929.25;10423013;28;20079;-68
2023/05/19 10:44:37;;;;;;;22.45;5.65;;;;;;;27.37;32.55;100063.53;10415903;28;20037;-67
2023/05/19 10:49:39;;;;;;;16.55;4.97;;;;;;;28.05;31.72;100059.88;10412118;28;20045;-67
2023/05/19 10:54:42;;;;;;;11.80;4.75;;;;;;;28.04;31.84;100046.53;10413118;28;20548;-68
2023/05/19 10:59:43;;;;;;;12.82;4.53;;;;;;;28.04;32.37;100062.91;10410141;28;20053;-67
2023/05/19 11:04:46;;;;;;;12.93;4.90;;;;;;;27.19;32.46;100013.28;10412300;28;20164;-69
2023/05/19 11:09:51;;;;;;;;;;;;;;;27.52;32.32;100071.63;10413054;28;20049;-68
2023/05/19 11:14:52;;;;;;;15.05;4.38;;;;;;;27.17;32.44;100074.66;10412908;28;19919;-68
2023/05/19 11:19:55;;;;;;;14.73;4.43;;;;;;;27.61;33.18;100051.88;10412568;28;20037;-68
2023/05/19 11:24:56;;;;;;;10.02;4.32;;;;;;;27.98;32.08;100067.63;10411877;28;20045;-68
2023/05/19 11:29:59;;;;;;;10.98;4.40;;;;;;;28.21;31.28;100061.34;10412849;28;20052;-67
2023/05/19 11:35:00;;;;;;;16.83;5.05;;;;;;;28.39;32.13;100047.97;10411898;28;20560;-67
2023/05/19 11:40:06;;;;;;;12.10;4.85;;;;;;;28.70;31.23;100067.53;10412183;28;20052;-68
2023/05/19 11:45:07;;;;;;;15.13;4.70;;;;;;;28.31;30.76;100011.22;10412254;28;20091;-68
2023/05/19 11:50:10;;;;;;;13.85;4.60;;;;;;;28.81;31.01;100063.53;10412415;28;20048;-69
2023/05/19 11:55:17;;;;;;;;;;;;;;;29.04;30.09;100056.38;10413001;28;20037;-68
2023/05/19 12:00:21;;;;;;;15.85;5.38;;;;;;;28.95;30.75;100065.53;10416910;28;19917;-68
2023/05/19 12:05:27;;;;;;;13.75;4.28;;;;;;;28.97;29.91;100046.91;10419529;28;20623;-67
2023/05/19 12:10:33;;;;;;;17.38;5.13;;;;;;;28.95;30.98;100060.84;10418765;28;20041;-67
2023/05/19 12:15:33;;;;;;;12.32;4.30;;;;;;;27.76;31.52;99967.94;10418203;28;20040;-69
2023/05/19 12:20:34;;;;;;;15.70;4.78;;;;;;;27.83;32.06;100078.72;10418632;28;20045;-68
2023/05/19 12:25:37;;;;;;;13.30;4.90;;;;;;;26.85;32.27;99975.09;10418577;28;20057;-67
2023/05/19 12:30:38;;;;;;;19.57;4.90;;;;;;;27.36;32.06;100061.13;10415243;28;20045;-66
2023/05/19 12:35:39;;;;;;;14.50;4.43;;;;;;;26.91;32.10;99905.81;10416895;28;20040;-67
2023/05/19 12:40:39;;;;;;;13.00;4.30;;;;;;;27.57;32.29;99991.59;10425905;28;20037;-69
2023/05/19 12:45:41;;;;;;;14.50;4.78;;;;;;;27.68;31.48;99992.31;10454468;28;20105;-67
2023/05/19 12:50:43;;;;;;;15.90;4.63;;;;;;;28.45;31.76;100065.97;10445354;28;20050;-67
2023/05/19 12:55:44;;;;;;;16.42;4.43;;;;;;;28.43;30.88;100079.09;10428807;28;20401;-67
2023/05/19 13:00:48;;;;;;;18.38;5.35;;;;;;;28.21;31.50;100071.44;10457332;28;20052;-67
2023/05/19 13:05:49;;;;;;;24.17;5.15;;;;;;;28.49;31.22;100068.94;10458058;28;20043;-67
2023/05/19 13:10:50;;;;;;;10.75;4.82;;;;;;;28.41;31.14;100067.66;10457287;28;20124;-67
2023/05/19 13:15:51;;;;;;;17.17;4.60;;;;;;;28.39;31.12;100042.50;10427674;28;20132;-67
2023/05/19 13:20:53;;;;;;;18.50;4.60;;;;;;;28.01;31.30;100068.97;10416481;28;20136;-68
2023/05/19 13:25:53;;;;;;;11.45;4.63;;;;;;;27.56;30.84;100050.00;10414483;28;20081;-68
2023/05/19 13:30:54;;;;;;;11.52;4.43;;;;;;;27.19;31.50;100045.16;10415274;28;20069;-66
2023/05/19 13:35:55;;;;;;;12.98;4.45;;;;;;;26.87;30.91;100016.50;10415784;28;20060;-67
2023/05/19 13:40:56;;;;;;;14.18;5.22;;;;;;;27.42;30.88;100059.97;10415456;28;20128;-67
2023/05/19 13:45:56;;;;;;;15.55;4.95;;;;;;;27.60;30.78;100061.97;10415476;28;20460;-66
2023/05/19 13:50:58;;;;;;;16.52;5.60;;;;;;;27.57;30.13;100065.28;10414981;28;20041;-66
2023/05/19 13:55:59;;;;;;;16.55;5.50;;;;;;;27.49;29.92;100082.25;10414326;28;20108;-67
2023/05/19 14:01:00;;;;;;;12.43;4.22;;;;;;;27.27;30.45;100075.34;10414355;28;20045;-66
2023/05/19 14:06:01;;;;;;;12.02;4.55;;;;;;;27.07;30.33;100043.59;10415224;28;20045;-66
2023/05/19 14:11:02;;;;;;;15.88;3.70;;;;;;;26.68;30.58;100007.38;10414294;28;20049;-66
2023/05/19 14:16:03;;;;;;;12.90;4.03;;;;;;;26.48;30.61;100057.31;10413116;28;20505;-66
2023/05/19 14:21:05;;;;;;;9.60;4.00;;;;;;;26.13;30.19;100005.47;10413440;28;20544;-66
2023/05/19 14:26:06;;;;;;;10.13;5.05;;;;;;;26.56;30.20;100092.16;10414328;28;20061;-68
2023/05/19 14:31:13;;;;;;;8.57;4.00;;;;;;;26.38;30.70;100090.84;10414418;28;20095;-68
2023/05/19 14:36:13;;;;;;;6.78;3.20;;;;;;;26.35;31.16;100091.41;10414032;28;20040;-66
2023/05/19 14:41:14;;;;;;;26.13;7.63;;;;;;;26.08;31.09;100091.78;10425586;28;20056;-67
2023/05/19 14:46:15;;;;;;;18.45;3.65;;;;;;;25.46;31.64;100031.25;10424093;28;20120;-67
2023/05/19 14:51:16;;;;;;;15.07;5.28;;;;;;;25.34;32.17;100034.25;10438049;28;20474;-67
2023/05/19 14:56:16;;;;;;;8.77;3.70;;;;;;;25.62;31.19;100106.28;10432315;28;20041;-67
2023/05/19 15:01:17;;;;;;;21.45;4.47;;;;;;;24.98;31.21;100023.34;10430049;28;20036;-67
2023/05/19 15:06:18;;;;;;;10.85;4.25;;;;;;;25.34;31.10;100072.31;10438570;28;20076;-67
2023/05/19 15:11:19;;;;;;;9.57;3.80;;;;;;;25.68;30.70;100120.69;10428448;28;20045;-68
2023/05/19 15:16:20;;;;;;;9.90;4.13;;;;;;;25.49;30.96;100096.78;10431613;28;20044;-67
2023/05/19 15:21:21;;;;;;;12.30;6.30;;;;;;;25.59;30.89;100127.78;10428910;28;20037;-68
2023/05/19 15:26:22;;;;;;;16.90;6.85;;;;;;;25.24;30.94;100113.88;10427213;28;20053;-65
2023/05/19 15:31:22;;;;;;;12.35;4.88;;;;;;;24.73;31.11;100067.59;10433986;28;20497;-68
2023/05/19 15:36:23;;;;;;;15.55;4.57;;;;;;;24.98;31.25;100155.69;10437290;28;20044;-68
2023/05/19 15:41:24;;;;;;;10.60;4.25;;;;;;;24.78;31.69;100157.25;10434624;28;20043;-67
2023/05/19 15:46:25;;;;;;;12.80;3.72;;;;;;;24.64;31.96;100174.31;10456756;28;20496;-67
2023/05/19 15:51:26;;;;;;;10.32;3.95;;;;;;;24.37;32.31;100177.94;10420894;28;20049;-66
2023/05/19 15:56:27;;;;;;;17.30;6.85;;;;;;;23.75;32.74;100117.03;10419364;28;20460;-67
2023/05/19 16:01:28;;;;;;;18.10;5.22;;;;;;;23.47;33.10;100104.63;10419748;28;20045;-67
2023/05/19 16:06:29;;;;;;;14.20;3.63;;;;;;;23.76;33.10;100193.84;10419250;28;20413;-66
2023/05/19 16:11:30;;;;;;;11.88;3.25;;;;;;;23.44;33.71;100181.84;10418784;28;20052;-67
2023/05/19 16:16:31;;;;;;;8.98;3.20;;;;;;;23.51;34.02;100237.75;10418495;28;20084;-66
2023/05/19 16:21:32;;;;;;;9.02;3.30;;;;;;;23.39;34.17;100240.63;10419311;28;20041;-66
2023/05/19 16:26:33;;;;;;;15.00;3.72;;;;;;;22.83;34.44;100185.78;10418267;28;20116;-66
2023/05/19 16:31:34;;;;;;;11.70;3.30;;;;;;;23.16;34.83;100258.81;10417997;28;20045;-66
2023/05/19 16:36:35;;;;;;;9.73;2.95;;;;;;;22.97;35.35;100263.75;10420505;28;20037;-67
2023/05/19 16:41:36;;;;;;;10.18;2.47;;;;;;;22.93;35.40;100275.28;10429428;28;20134;-67
2023/05/19 16:46:36;;;;;;;9.88;2.83;;;;;;;22.72;35.41;100277.72;10434496;28;20116;-68
2023/05/19 16:51:37;;;;;;;11.60;3.42;;;;;;;22.69;35.55;100285.53;10439196;28;20037;-67
2023/05/19 16:56:38;;;;;;;5.07;2.17;;;;;;;22.60;35.68;100295.16;10435630;28;20043;-67
2023/05/19 17:01:39;;;;;;;10.40;2.40;;;;;;;22.44;36.08;100296.81;10433873;28;20501;-69
2023/05/19 17:06:40;;;;;;;7.90;2.50;;;;;;;21.83;36.82;100210.06;10436630;28;20041;-67
2023/05/19 17:11:41;;;;;;;7.10;2.80;;;;;;;21.76;38.67;100223.75;10436941;28;20036;-66
2023/05/19 17:16:41;;;;;;;7.28;3.05;;;;;;;21.94;40.81;100303.81;10437571;28;20182;-67
2023/05/19 17:21:42;;;;;;;6.35;2.85;;;;;;;21.71;42.69;100288.53;10435884;28;20048;-68
2023/05/19 17:26:43;;;;;;;11.82;3.38;;;;;;;21.58;43.93;100305.06;10439204;28;20049;-68
2023/05/19 17:31:44;;;;;;;10.82;3.53;;;;;;;21.45;45.76;100305.31;10437761;28;20036;-67
2023/05/19 17:36:45;;;;;;;6.88;3.60;;;;;;;21.33;47.62;100310.75;10429648;28;20050;-68
2023/05/19 17:41:46;;;;;;;10.63;3.85;;;;;;;21.03;48.73;100278.53;10439777;28;20402;-67
2023/05/19 17:46:46;;;;;;;8.30;4.57;;;;;;;21.01;49.03;100321.16;10430285;28;20033;-67
2023/05/19 17:51:47;;;;;;;9.57;4.55;;;;;;;20.69;50.18;100330.44;10432875;28;20119;-67
2023/05/19 17:56:49;;;;;;;17.83;5.22;;;;;;;20.38;50.92;100331.59;10430280;28;20079;-67
2023/05/19 18:01:51;;;;;;;46.85;25.00;;;;;;;20.11;52.19;100327.69;10431047;28;20040;-66
2023/05/19 18:06:52;;;;;;;35.22;16.30;;;;;;;19.67;53.19;100275.88;10440145;28;20048;-68
2023/05/19 18:11:53;;;;;;;18.63;7.78;;;;;;;19.86;54.52;100320.56;10436239;28;20112;-67
2023/05/19 18:16:54;;;;;;;12.43;4.22;;;;;;;19.86;54.98;100319.75;10430922;28;20124;-67
2023/05/19 18:21:55;;;;;;;7.93;3.60;;;;;;;19.37;55.68;100257.78;10452044;28;20554;-67
2023/05/19 18:26:56;;;;;;;10.13;4.10;;;;;;;18.98;56.00;100205.28;10437923;28;20101;-67
2023/05/19 18:31:56;;;;;;;11.00;3.78;;;;;;;19.27;56.44;100252.13;10414594;28;20049;-66
2023/05/19 18:36:57;;;;;;;10.20;4.72;;;;;;;19.12;57.51;100237.19;10411940;28;20044;-66
2023/05/19 18:41:58;;;;;;;16.45;4.65;;;;;;;19.59;57.86;100320.91;10451411;28;20037;-67
2023/05/19 18:46:59;;;;;;;9.38;3.92;;;;;;;19.56;58.15;100336.69;10453973;28;20036;-67
2023/05/19 18:52:00;;;;;;;11.70;4.05;;;;;;;19.48;58.42;100321.69;10444664;28;20132;-67
2023/05/19 18:57:02;;;;;;;14.05;5.07;;;;;;;19.31;59.26;100317.97;10434497;28;20127;-67
2023/05/19 19:02:03;;;;;;;15.43;4.20;;;;;;;19.29;59.82;100328.94;10437111;28;20045;-66
2023/05/19 19:07:04;;;;;;;11.57;5.25;;;;;;;19.19;60.72;100335.94;10413573;28;20037;-66
2023/05/19 19:12:05;;;;;;;7.60;3.83;;;;;;;18.98;60.96;100339.88;10420690;28;20037;-66
2023/05/19 19:17:06;;;;;;;17.58;4.40;;;;;;;18.99;62.08;100333.44;10420589;28;20404;-67
2023/05/19 19:22:07;;;;;;;10.63;4.90;;;;;;;18.76;63.15;100323.34;10427462;28;20091;-66
2023/05/19 19:27:09;;;;;;;12.93;3.90;;;;;;;18.77;64.56;100339.25;10425530;28;20068;-66
2023/05/19 19:32:10;;;;;;;8.32;3.22;;;;;;;18.69;65.09;100331.44;10420798;28;20037;-68
2023/05/19 19:37:13;;;;;;;7.55;3.92;;;;;;;18.65;65.96;100338.31;10420962;28;20034;-66
2023/05/19 19:42:14;;;;;;;13.63;4.73;;;;;;;18.28;67.01;100286.28;10419916;28;20053;-67
2023/05/19 19:47:15;;;;;;;10.65;4.15;;;;;;;18.43;68.54;100345.97;10440623;28;20045;-68
2023/05/19 19:52:16;;;;;;;7.00;3.85;;;;;;;18.32;68.11;100355.56;10424034;28;20037;-66
2023/05/19 19:57:17;;;;;;;10.00;4.05;;;;;;;17.91;68.70;100297.72;10419624;28;20041;-67
2023/05/19 20:02:18;;;;;;;7.15;4.13;;;;;;;18.03;69.40;100341.66;10420190;28;20045;-67
2023/05/19 20:07:19;;;;;;;6.68;4.18;;;;;;;17.81;70.20;100340.38;10419464;28;20551;-66
2023/05/19 20:12:21;;;;;;;6.90;4.00;;;;;;;17.55;70.80;100317.94;10419477;28;20088;-67
2023/05/19 20:17:22;;;;;;;6.85;4.00;;;;;;;17.72;71.35;100350.53;10420070;28;20111;-66
2023/05/19 20:22:22;;;;;;;10.40;4.10;;;;;;;17.55;71.83;100352.03;10418086;28;20069;-66
2023/05/19 20:27:23;;;;;;;10.50;3.90;;;;;;;17.47;72.79;100354.97;10417803;28;20061;-67
2023/05/19 20:32:24;;;;;;;6.05;3.65;;;;;;;17.33;73.18;100354.22;10417780;28;20048;-66
2023/05/19 20:37:25;;;;;;;8.75;4.03;;;;;;;16.81;73.23;100275.50;10418072;28;20041;-67
2023/05/19 20:42:26;;;;;;;8.10;3.72;;;;;;;17.07;73.72;100336.31;10417681;28;20072;-66
2023/05/19 20:47:27;;;;;;;6.53;3.53;;;;;;;17.15;73.71;100346.00;10418544;28;20128;-66
2023/05/19 20:52:28;;;;;;;8.80;3.70;;;;;;;17.07;73.91;100355.09;10417601;28;20278;-66
2023/05/19 20:57:28;;;;;;;7.25;3.63;;;;;;;16.78;74.12;100319.69;10417372;28;20111;-65
2023/05/19 21:02:29;;;;;;;9.38;3.80;;;;;;;16.91;74.53;100345.66;10417793;28;20037;-66
2023/05/19 21:07:30;;;;;;;6.15;3.08;;;;;;;16.50;74.33;100274.28;10416939;28;20136;-66
2023/05/19 21:12:32;;;;;;;6.65;3.22;;;;;;;16.73;73.99;100324.81;10417547;28;20037;-69
2023/05/19 21:17:33;;;;;;;6.95;3.22;;;;;;;16.68;73.88;100319.22;10416070;28;20046;-66
2023/05/19 21:22:37;;;;;;;8.25;3.63;;;;;;;15.97;73.79;100213.53;10416107;28;20187;-66
2023/05/19 21:27:38;;;;;;;4.87;3.20;;;;;;;16.69;73.97;100336.97;10416398;28;20079;-66
2023/05/19 21:32:39;;;;;;;7.22;3.13;;;;;;;16.36;74.26;100300.31;10415672;28;20048;-66
2023/05/19 21:37:40;;;;;;;3.50;2.97;;;;;;;16.51;74.37;100337.63;10415113;28;20033;-66
2023/05/19 21:42:40;;;;;;;5.47;3.05;;;;;;;16.06;74.37;100261.53;10415965;28;20501;-67
2023/05/19 21:47:41;;;;;;;8.27;3.13;;;;;;;15.85;74.78;100252.66;10414573;28;20060;-66
2023/05/19 21:52:42;;;;;;;10.55;3.50;;;;;;;15.90;74.64;100265.44;10415357;28;20501;-66
2023/05/19 21:57:43;;;;;;;7.55;3.45;;;;;;;16.19;74.79;100312.47;10415190;28;20159;-67
2023/05/19 22:02:44;;;;;;;6.63;3.60;;;;;;;15.75;74.76;100250.38;10415677;28;20040;-66
2023/05/19 22:07:46;;;;;;;6.93;3.95;;;;;;;16.18;75.42;100326.88;10415091;28;20417;-66
2023/05/19 22:12:46;;;;;;;9.20;3.60;;;;;;;16.04;75.74;100312.66;10414517;28;20041;-66
2023/05/19 22:17:47;;;;;;;10.18;3.72;;;;;;;16.07;75.98;100328.31;10414315;28;20034;-66
2023/05/19 22:22:48;;;;;;;6.65;3.53;;;;;;;15.94;76.30;100314.88;10413561;28;20113;-66
2023/05/19 22:27:49;;;;;;;7.93;3.67;;;;;;;15.81;77.02;100321.06;10414109;28;20053;-66
2023/05/19 22:32:49;;;;;;;12.02;4.00;;;;;;;15.61;77.17;100320.13;10413907;28;20041;-66
2023/05/19 22:37:50;;;;;;;6.05;3.67;;;;;;;15.50;77.52;100326.91;10412996;28;20416;-66
2023/05/19 22:42:51;;;;;;;12.77;4.03;;;;;;;15.47;77.85;100330.81;10412188;28;20060;-66
2023/05/19 22:47:53;;;;;;;11.13;3.90;;;;;;;14.67;78.06;100214.59;10415609;28;21896;-66
2023/05/19 22:52:54;;;;;;;7.70;4.43;;;;;;;14.81;78.41;100239.56;10454608;28;20484;-66
2023/05/19 22:57:55;;;;;;;14.60;4.32;;;;;;;14.75;78.43;100256.41;10454117;28;20041;-66